createdAt,value
2018-09-08T00:01:44.506Z,60.47
2018-09-08T00:04:13.366Z,60.31
2018-09-08T00:06:42.238Z,60.22
2018-09-08T00:09:11.132Z,60.58
2018-09-08T00:11:39.990Z,60.77
2018-09-08T00:14:08.862Z,60.87
2018-09-08T00:16:42.787Z,60.69
2018-09-08T00:19:16.699Z,60.64
2018-09-08T00:21:50.636Z,60.55
2018-09-08T00:24:24.735Z,59.88
2018-09-08T00:26:52.583Z,60.11
2018-09-08T00:29:30.534Z,60.19
2018-09-08T00:31:59.855Z,59.25
2018-09-08T00:34:28.771Z,59.30
2018-09-08T00:36:57.610Z,59.71
2018-09-08T00:39:26.528Z,60.05
2018-09-08T00:41:55.385Z,60.11
2018-09-08T00:44:24.301Z,60.37
2018-09-08T00:46:53.219Z,60.51
2018-09-08T00:49:22.131Z,61.17
2018-09-08T00:51:51.088Z,61.14
2018-09-08T00:54:20.067Z,61.64
2018-09-08T00:56:49.118Z,61.52
2018-09-08T00:59:18.104Z,61.70
2018-09-08T01:01:47.081Z,61.66
2018-09-08T01:04:16.021Z,61.71
2018-09-08T01:06:45.015Z,62.12
2018-09-08T01:09:14.022Z,61.85
2018-09-08T01:11:42.937Z,62.04
2018-09-08T01:14:11.954Z,62.25
2018-09-08T01:16:40.867Z,62.36
2018-09-08T01:19:09.984Z,62.38
2018-09-08T01:21:39.069Z,62.49
2018-09-08T01:24:08.001Z,62.27
2018-09-08T01:26:36.916Z,62.22
2018-09-08T01:29:06.040Z,62.22
2018-09-08T01:31:35.021Z,62.12
2018-09-08T01:34:04.142Z,62.33
2018-09-08T01:36:33.219Z,62.63
2018-09-08T01:39:02.141Z,62.91
2018-09-08T01:41:31.071Z,62.96
2018-09-08T01:44:00.061Z,63.15
2018-09-08T01:46:29.025Z,63.08
2018-09-08T01:48:57.936Z,63.15
2018-09-08T01:51:27.001Z,63.24
2018-09-08T01:53:56.073Z,62.86
2018-09-08T01:56:25.042Z,63.05
2018-09-08T01:58:53.973Z,63.73
2018-09-08T02:01:22.943Z,63.39
2018-09-08T02:03:51.859Z,63.37
2018-09-08T02:06:20.776Z,62.85
2018-09-08T02:08:49.895Z,63.07
2018-09-08T02:11:18.946Z,63.29
2018-09-08T02:13:47.914Z,63.22
2018-09-08T02:16:16.923Z,63.13
2018-09-08T02:18:46.059Z,63.07
2018-09-08T02:21:15.133Z,63.67
2018-09-08T02:23:44.065Z,63.51
2018-09-08T02:26:12.965Z,63.31
2018-09-08T02:28:41.964Z,63.44
2018-09-08T02:31:10.948Z,62.99
2018-09-08T02:33:39.849Z,62.78
2018-09-08T02:36:08.799Z,62.93
2018-09-08T02:38:37.781Z,63.08
2018-09-08T02:43:34.563Z,63.41
2018-09-08T02:46:03.585Z,63.60
2018-09-08T02:48:32.608Z,63.78
2018-09-08T02:51:00.076Z,63.69
2018-09-08T02:53:27.570Z,63.92
2018-09-08T02:55:55.036Z,64.00
2018-09-08T02:58:22.557Z,63.96
2018-09-08T03:00:50.285Z,63.64
2018-09-08T03:03:17.761Z,63.33
2018-09-08T03:05:45.239Z,63.96
2018-09-08T03:08:12.704Z,63.57
2018-09-08T03:10:40.177Z,63.41
2018-09-08T03:13:07.704Z,63.36
2018-09-08T03:15:35.302Z,63.72
2018-09-08T03:18:02.764Z,63.97
2018-09-08T03:20:30.318Z,63.72
2018-09-08T03:22:57.781Z,63.86
2018-09-08T03:25:25.236Z,64.13
2018-09-08T03:27:52.707Z,64.03
2018-09-08T03:30:20.289Z,64.19
2018-09-08T03:32:47.826Z,64.33
2018-09-08T03:35:15.308Z,64.61
2018-09-08T03:37:42.877Z,64.24
2018-09-08T03:40:10.436Z,64.44
2018-09-08T03:42:37.914Z,64.27
2018-09-08T03:45:05.457Z,64.36
2018-09-08T03:47:32.984Z,64.19
2018-09-08T03:50:00.503Z,64.04
2018-09-08T03:52:27.972Z,64.47
2018-09-08T03:54:55.441Z,64.85
2018-09-08T03:57:22.941Z,64.59
2018-09-08T03:59:50.965Z,64.23
2018-09-08T04:02:18.502Z,64.15
2018-09-08T04:04:47.480Z,64.18
2018-09-08T04:07:16.605Z,64.49
2018-09-08T04:09:45.572Z,64.50
2018-09-08T04:12:14.492Z,64.23
2018-09-08T04:14:43.452Z,64.43
2018-09-08T04:17:12.453Z,64.44
2018-09-08T04:19:41.396Z,64.50
2018-09-08T04:22:10.324Z,63.76
2018-09-08T04:24:39.311Z,63.69
2018-09-08T04:27:08.305Z,64.01
2018-09-08T04:29:37.314Z,63.79
2018-09-08T04:32:06.352Z,64.12
2018-09-08T04:34:35.260Z,64.11
2018-09-08T04:37:05.033Z,64.07
2018-09-08T04:39:34.040Z,63.90
2018-09-08T04:42:03.094Z,64.08
2018-09-08T04:44:31.989Z,63.63
2018-09-08T04:47:00.976Z,63.85
2018-09-08T04:49:29.907Z,64.04
2018-09-08T04:51:58.852Z,64.13
2018-09-08T04:54:27.837Z,64.06
2018-09-08T04:56:56.739Z,63.49
2018-09-08T04:59:25.784Z,63.35
2018-09-08T05:01:54.716Z,64.27
2018-09-08T05:04:23.652Z,64.27
2018-09-08T05:06:52.753Z,64.22
2018-09-08T05:09:21.655Z,66.19
2018-09-08T05:11:50.645Z,65.16
2018-09-08T05:14:19.620Z,64.92
2018-09-08T05:16:48.656Z,64.43
2018-09-08T05:19:17.612Z,64.72
2018-09-08T05:21:46.526Z,64.73
2018-09-08T05:24:15.478Z,64.14
2018-09-08T05:26:44.436Z,63.99
2018-09-08T05:29:13.351Z,63.08
2018-09-08T05:31:42.261Z,62.94
2018-09-08T05:34:11.380Z,63.06
2018-09-08T05:36:40.343Z,62.74
2018-09-08T05:39:09.287Z,62.43
2018-09-08T05:41:38.276Z,61.98
2018-09-08T05:44:07.304Z,61.79
2018-09-08T05:46:36.236Z,61.74
2018-09-08T05:49:05.156Z,61.33
2018-09-08T05:51:34.119Z,60.91
2018-09-08T05:54:03.082Z,60.69
2018-09-08T05:56:32.007Z,60.33
2018-09-08T05:59:00.947Z,60.36
2018-09-08T06:01:29.868Z,60.28
2018-09-08T06:03:58.909Z,60.25
2018-09-08T06:06:27.882Z,60.01
2018-09-08T06:08:56.929Z,60.18
2018-09-08T06:11:25.851Z,59.83
2018-09-08T06:13:54.918Z,59.70
2018-09-08T06:16:23.833Z,59.51
2018-09-08T06:18:52.751Z,59.94
2018-09-08T06:21:21.736Z,59.35
2018-09-08T06:23:50.715Z,59.12
2018-09-08T06:26:19.755Z,58.25
2018-09-08T06:28:48.684Z,58.67
2018-09-08T06:31:17.720Z,58.08
2018-09-08T06:33:46.741Z,57.91
2018-09-08T06:36:15.644Z,57.72
2018-09-08T06:38:44.635Z,58.63
2018-09-08T06:41:13.595Z,59.39
2018-09-08T06:43:42.580Z,57.94
2018-09-08T06:46:11.571Z,57.94
2018-09-08T06:48:40.492Z,58.31
2018-09-08T06:51:09.431Z,58.31
2018-09-08T06:53:38.492Z,58.15
2018-09-08T06:56:07.752Z,57.14
2018-09-08T06:58:36.668Z,57.58
2018-09-08T07:01:05.668Z,57.47
2018-09-08T07:03:34.689Z,58.13
2018-09-08T07:06:03.694Z,57.96
2018-09-08T07:08:32.623Z,57.85
2018-09-08T07:11:01.536Z,57.92
2018-09-08T07:13:30.704Z,57.73
2018-09-08T07:15:59.700Z,57.22
2018-09-08T07:18:28.700Z,57.31
2018-09-08T07:20:57.627Z,57.87
2018-09-08T07:23:26.606Z,57.30
2018-09-08T07:25:55.756Z,55.94
2018-09-08T07:28:24.682Z,56.48
2018-09-08T07:30:53.715Z,57.25
2018-09-08T07:33:22.621Z,57.76
2018-09-08T07:35:51.690Z,58.41
2018-09-08T07:38:20.644Z,59.36
2018-09-08T07:40:49.570Z,57.58
2018-09-08T07:43:18.520Z,59.56
2018-09-08T07:45:47.644Z,59.26
2018-09-08T07:48:16.952Z,59.55
2018-09-08T07:50:45.949Z,59.69
2018-09-08T07:53:15.076Z,59.82
2018-09-08T07:55:44.019Z,60.19
2018-09-08T07:58:12.988Z,60.70
2018-09-08T08:00:41.940Z,59.66
2018-09-08T08:03:10.847Z,59.30
2018-09-08T08:05:39.770Z,59.03
2018-09-08T08:08:08.743Z,58.57
2018-09-08T08:10:37.787Z,59.12
2018-09-08T08:13:06.761Z,58.85
2018-09-08T08:15:35.663Z,59.85
2018-09-08T08:18:04.640Z,60.32
2018-09-08T08:20:33.565Z,58.99
2018-09-08T08:23:02.515Z,59.35
2018-09-08T08:25:31.416Z,58.36
2018-09-08T08:28:00.493Z,58.57
2018-09-08T08:30:29.517Z,57.61
2018-09-08T08:32:58.476Z,56.01
2018-09-08T08:35:27.484Z,56.01
2018-09-08T08:37:56.415Z,55.58
2018-09-08T08:40:25.481Z,55.28
2018-09-08T08:42:54.688Z,54.33
2018-09-08T08:45:23.686Z,53.36
2018-09-08T08:47:52.759Z,53.07
2018-09-08T08:50:32.622Z,52.82
2018-09-08T08:53:12.469Z,52.88
2018-09-08T08:55:41.478Z,52.98
2018-09-08T08:58:10.481Z,51.53
2018-09-08T09:00:39.399Z,51.85
2018-09-08T09:03:08.429Z,50.65
2018-09-08T09:05:37.391Z,51.27
2018-09-08T09:08:06.433Z,50.53
2018-09-08T09:10:35.526Z,50.22
2018-09-08T09:13:04.508Z,50.10
2018-09-08T09:15:33.714Z,50.45
2018-09-08T09:18:02.368Z,50.65
2018-09-08T09:20:42.244Z,49.00
2018-09-08T09:24:20.333Z,49.69
2018-09-08T09:26:48.897Z,49.12
2018-09-08T09:29:17.884Z,49.69
2018-09-08T09:31:47.039Z,49.04
2018-09-08T09:34:15.979Z,49.30
2018-09-08T09:36:44.917Z,47.79
2018-09-08T09:39:13.839Z,48.83
2018-09-08T09:41:43.221Z,47.69
2018-09-08T09:44:12.585Z,47.96
2018-09-08T09:46:42.212Z,47.52
2018-09-08T09:49:11.146Z,47.68
2018-09-08T09:51:40.052Z,48.91
2018-09-08T09:54:09.017Z,48.78
2018-09-08T09:56:38.103Z,48.67
2018-09-08T09:59:07.117Z,49.75
2018-09-08T10:01:41.150Z,47.89
2018-09-08T10:04:10.197Z,47.99
2018-09-08T10:06:39.304Z,48.96
2018-09-08T10:09:09.265Z,47.41
2018-09-08T10:11:38.200Z,48.40
2018-09-08T10:14:07.626Z,48.10
2018-09-08T10:16:36.580Z,48.39
2018-09-08T10:19:06.148Z,48.39
2018-09-08T10:21:35.221Z,47.79
2018-09-08T10:24:05.155Z,47.32
2018-09-08T10:26:33.274Z,47.74
2018-09-08T10:29:02.328Z,47.69
2018-09-08T10:31:31.391Z,48.99
2018-09-08T10:34:00.411Z,48.09
2018-09-08T10:36:29.388Z,48.08
2018-09-08T10:38:58.495Z,47.36
2018-09-08T10:41:28.596Z,48.24
2018-09-08T10:43:57.618Z,48.76
2018-09-08T10:46:27.662Z,47.22
2018-09-08T10:48:56.629Z,47.75
2018-09-08T10:51:42.251Z,46.67
2018-09-08T10:54:11.152Z,47.60
2018-09-08T10:56:40.224Z,46.91
2018-09-08T10:59:09.504Z,47.30
2018-09-08T11:01:38.675Z,47.48
2018-09-08T11:04:07.988Z,48.78
2018-09-08T11:06:37.116Z,46.19
2018-09-08T11:09:06.981Z,45.98
2018-09-08T11:11:35.932Z,46.21
2018-09-08T11:14:04.965Z,46.28
2018-09-08T11:16:34.055Z,44.39
2018-09-08T11:19:03.073Z,45.39
2018-09-08T11:21:31.999Z,46.09
2018-09-08T11:24:00.984Z,47.19
2018-09-08T11:26:29.907Z,46.14
2018-09-08T11:28:58.872Z,46.94
2018-09-08T11:31:27.885Z,46.08
2018-09-08T11:33:56.800Z,46.80
2018-09-08T11:36:25.741Z,48.28
2018-09-08T11:38:54.712Z,49.14
2018-09-08T11:41:23.653Z,50.16
2018-09-08T11:43:52.676Z,51.25
2018-09-08T11:46:21.594Z,51.26
2018-09-08T11:48:50.612Z,49.37
2018-09-08T11:51:19.640Z,49.30
2018-09-08T11:53:48.544Z,47.30
2018-09-08T11:56:17.539Z,49.41
2018-09-08T11:58:46.552Z,49.00
2018-09-08T12:01:15.568Z,49.67
2018-09-08T12:03:44.512Z,50.10
2018-09-08T12:06:13.617Z,49.91
2018-09-08T12:08:42.613Z,49.94
2018-09-08T12:11:11.619Z,50.01
2018-09-08T12:13:40.708Z,50.99
2018-09-08T12:16:09.757Z,51.94
2018-09-08T12:18:38.688Z,52.88
2018-09-08T12:21:07.640Z,53.09
2018-09-08T12:23:36.656Z,54.34
2018-09-08T12:26:05.653Z,54.76
2018-09-08T12:28:34.632Z,54.86
2018-09-08T12:31:03.749Z,55.43
2018-09-08T12:33:32.652Z,54.57
2018-09-08T12:36:01.876Z,54.53
2018-09-08T12:38:30.886Z,54.11
2018-09-08T12:40:59.824Z,54.14
2018-09-08T12:43:28.874Z,54.28
2018-09-08T12:45:58.060Z,55.05
2018-09-08T12:48:27.008Z,53.75
2018-09-08T12:50:55.948Z,54.14
2018-09-08T12:53:24.934Z,52.32
2018-09-08T12:55:53.895Z,52.58
2018-09-08T12:58:22.863Z,50.62
2018-09-08T13:00:51.920Z,51.02
2018-09-08T13:03:20.956Z,51.04
2018-09-08T13:05:49.884Z,52.82
2018-09-08T13:08:18.869Z,54.19
2018-09-08T13:10:47.917Z,55.20
2018-09-08T13:13:16.880Z,55.31
2018-09-08T13:15:45.828Z,55.54
2018-09-08T13:18:14.759Z,55.92
2018-09-08T13:20:43.776Z,57.78
2018-09-08T13:23:12.760Z,54.55
2018-09-08T13:25:41.792Z,55.02
2018-09-08T13:28:10.825Z,54.83
2018-09-08T13:30:39.747Z,53.00
2018-09-08T13:33:09.128Z,52.18
2018-09-08T13:35:38.039Z,50.22
2018-09-08T13:38:07.084Z,50.95
2018-09-08T13:40:36.022Z,53.20
2018-09-08T13:43:04.980Z,51.45
2018-09-08T13:45:33.930Z,50.51
2018-09-08T13:48:04.085Z,51.94
2018-09-08T13:50:33.044Z,49.27
2018-09-08T13:53:02.076Z,50.90
2018-09-08T13:55:31.133Z,49.41
2018-09-08T13:58:00.118Z,50.93
2018-09-08T14:00:29.125Z,52.34
2018-09-08T14:02:58.080Z,48.49
2018-09-08T14:05:26.971Z,50.99
2018-09-08T14:07:58.145Z,50.44
2018-09-08T14:10:27.177Z,49.80
2018-09-08T14:12:56.268Z,51.80
2018-09-08T14:15:25.215Z,52.01
2018-09-08T14:17:54.181Z,51.87
2018-09-08T14:20:23.252Z,50.04
2018-09-08T14:22:52.240Z,49.63
2018-09-08T14:25:21.167Z,49.72
2018-09-08T14:27:50.090Z,51.38
2018-09-08T14:30:19.202Z,51.83
2018-09-08T14:32:48.108Z,52.90
2018-09-08T14:35:17.033Z,48.31
2018-09-08T14:37:46.040Z,50.36
2018-09-08T14:40:15.133Z,51.45
2018-09-08T14:42:44.070Z,49.31
2018-09-08T14:45:13.097Z,46.52
2018-09-08T14:47:42.597Z,49.31
2018-09-08T14:50:12.147Z,50.58
2018-09-08T14:52:41.161Z,50.98
2018-09-08T14:55:10.224Z,51.08
2018-09-08T14:57:39.584Z,51.82
2018-09-08T15:00:08.637Z,51.10
2018-09-08T15:02:37.690Z,50.48
2018-09-08T15:05:07.298Z,51.27
2018-09-08T15:07:37.062Z,51.62
2018-09-08T15:10:06.497Z,51.74
2018-09-08T15:12:35.573Z,51.21
2018-09-08T15:15:04.547Z,52.29
2018-09-08T15:17:33.577Z,52.08
2018-09-08T15:20:02.756Z,50.97
2018-09-08T15:22:31.821Z,51.09
2018-09-08T15:25:01.138Z,50.81
2018-09-08T15:27:30.069Z,50.70
2018-09-08T15:29:59.206Z,52.60
2018-09-08T15:32:28.224Z,54.00
2018-09-08T15:34:57.190Z,54.87
2018-09-08T15:37:26.224Z,54.98
2018-09-08T15:39:55.156Z,57.20
2018-09-08T15:42:24.092Z,56.87
2018-09-08T15:44:53.015Z,58.31
2018-09-08T15:47:21.965Z,58.48
2018-09-08T15:49:50.886Z,60.98
2018-09-08T15:52:19.985Z,60.42
2018-09-08T15:54:48.916Z,60.58
2018-09-08T15:57:17.832Z,60.77
2018-09-08T15:59:46.749Z,61.39
2018-09-08T16:02:15.738Z,62.43
2018-09-08T16:04:44.781Z,62.96
2018-09-08T16:07:13.679Z,62.09
2018-09-08T16:09:42.740Z,61.04
2018-09-08T16:12:11.628Z,61.17
2018-09-08T16:14:40.516Z,59.58
2018-09-08T16:17:09.632Z,59.56
2018-09-08T16:19:38.848Z,58.66
2018-09-08T16:22:07.910Z,59.13
2018-09-08T16:24:36.933Z,59.70
2018-09-08T16:27:06.062Z,60.25
2018-09-08T16:29:35.088Z,59.33
2018-09-08T16:32:04.049Z,59.39
2018-09-08T16:34:33.232Z,58.86
2018-09-08T16:37:02.195Z,59.74
2018-09-08T16:39:31.148Z,59.71
2018-09-08T16:42:00.087Z,61.08
2018-09-08T16:44:29.168Z,60.97
2018-09-08T16:46:58.121Z,60.46
2018-09-08T16:49:27.184Z,61.26
2018-09-08T16:51:57.774Z,61.38
2018-09-08T16:54:26.789Z,60.79
2018-09-08T16:56:55.845Z,56.56
2018-09-08T16:59:24.983Z,56.59
2018-09-08T17:01:54.003Z,60.67
2018-09-08T17:04:23.071Z,59.04
2018-09-08T17:06:52.411Z,57.48
2018-09-08T17:09:21.432Z,59.17
2018-09-08T17:11:50.424Z,59.06
2018-09-08T17:14:19.400Z,58.66
2018-09-08T17:16:48.353Z,57.83
2018-09-08T17:19:17.420Z,58.88
2018-09-08T17:21:46.464Z,57.58
2018-09-08T17:24:15.533Z,58.94
2018-09-08T17:26:44.549Z,58.81
2018-09-08T17:29:13.504Z,58.17
2018-09-08T17:31:42.456Z,59.50
2018-09-08T17:34:11.510Z,58.77
2018-09-08T17:36:40.516Z,58.91
2018-09-08T17:39:11.837Z,58.52
2018-09-08T17:41:40.857Z,59.22
2018-09-08T17:44:10.213Z,58.83
2018-09-08T17:46:39.563Z,59.68
2018-09-08T17:49:08.519Z,58.98
2018-09-08T17:51:37.465Z,60.40
2018-09-08T17:54:06.725Z,60.39
2018-09-08T17:56:35.808Z,63.28
2018-09-08T17:59:04.724Z,63.24
2018-09-08T18:01:33.665Z,62.83
2018-09-08T18:04:02.628Z,60.13
2018-09-08T18:06:31.741Z,61.71
2018-09-08T18:09:00.718Z,59.56
2018-09-08T18:11:29.756Z,59.43
2018-09-08T18:13:58.764Z,60.66
2018-09-08T18:16:28.028Z,63.00
2018-09-08T18:18:56.964Z,63.80
2018-09-08T18:21:25.918Z,63.42
2018-09-08T18:23:54.859Z,60.86
2018-09-08T18:26:23.831Z,62.60
2018-09-08T18:28:52.863Z,57.97
2018-09-08T18:31:21.921Z,59.15
2018-09-08T18:33:50.849Z,59.12
2018-09-08T18:36:20.012Z,58.65
2018-09-08T18:38:49.016Z,60.44
2018-09-08T18:41:18.220Z,59.29
2018-09-08T18:43:47.137Z,59.72
2018-09-08T18:46:16.111Z,60.12
2018-09-08T18:48:45.054Z,60.81
2018-09-08T18:51:14.841Z,60.83
2018-09-08T18:53:43.913Z,60.95
2018-09-08T18:56:12.834Z,60.38
2018-09-08T18:58:41.833Z,59.65
2018-09-08T19:01:10.811Z,61.16
2018-09-08T19:03:39.828Z,59.10
2018-09-08T19:06:08.762Z,61.80
2018-09-08T19:08:43.372Z,62.83
2018-09-08T19:11:13.180Z,63.05
2018-09-08T19:13:42.944Z,61.24
2018-09-08T19:16:12.841Z,62.26
2018-09-08T19:18:41.799Z,63.46
2018-09-08T19:21:10.777Z,63.47
2018-09-08T19:23:39.747Z,62.16
2018-09-08T19:26:08.789Z,63.34
2018-09-08T19:28:37.702Z,61.14
2018-09-08T19:31:06.699Z,60.25
2018-09-08T19:33:35.799Z,60.58
2018-09-08T19:36:05.235Z,60.02
2018-09-08T19:38:34.213Z,61.04
2018-09-08T19:41:03.368Z,60.63
2018-09-08T19:43:32.312Z,59.68
2018-09-08T19:46:05.491Z,59.43
2018-09-08T19:48:34.553Z,59.87
2018-09-08T19:51:03.528Z,59.28
2018-09-08T19:53:37.507Z,59.18
2018-09-08T19:56:06.481Z,61.45
2018-09-08T19:58:40.488Z,61.06
2018-09-08T20:01:09.409Z,59.82
2018-09-08T20:03:38.448Z,60.69
2018-09-08T20:06:07.352Z,62.32
2018-09-08T20:08:36.463Z,63.57
2018-09-08T20:11:05.465Z,64.65
2018-09-08T20:13:34.451Z,63.39
2018-09-08T20:16:03.374Z,65.65
2018-09-08T20:21:00.092Z,64.77
2018-09-08T20:23:29.015Z,64.78
2018-09-08T20:25:57.929Z,63.85
2018-09-08T20:28:26.899Z,63.92
2018-09-08T20:30:55.801Z,63.24
2018-09-08T20:33:24.696Z,62.99
2018-09-08T20:35:53.738Z,63.51
2018-09-08T20:38:22.805Z,63.63
2018-09-08T20:40:51.708Z,62.55
2018-09-08T20:43:20.606Z,61.92
2018-09-08T20:45:49.564Z,61.83
2018-09-08T20:48:18.561Z,62.06
2018-09-08T20:50:47.492Z,61.56
2018-09-08T20:53:16.404Z,62.18
2018-09-08T20:55:45.379Z,61.49
2018-09-08T20:58:14.345Z,62.66
2018-09-08T21:00:43.276Z,61.64
2018-09-08T21:03:12.300Z,63.56
2018-09-08T21:05:41.197Z,63.75
2018-09-08T21:08:10.138Z,63.19
2018-09-08T21:10:39.172Z,64.46
2018-09-08T21:13:08.207Z,65.33
2018-09-08T21:15:37.190Z,67.60
2018-09-08T21:18:06.104Z,67.40
2018-09-08T21:20:35.028Z,66.53
2018-09-08T21:23:03.960Z,67.43
2018-09-08T21:25:32.887Z,64.88
2018-09-08T21:28:01.842Z,64.61
2018-09-08T21:30:30.896Z,65.00
2018-09-08T21:32:59.796Z,64.89
2018-09-08T21:35:28.724Z,64.31
2018-09-08T21:37:57.712Z,63.76
2018-09-08T21:40:26.788Z,62.96
2018-09-08T21:42:55.704Z,63.32
2018-09-08T21:45:24.711Z,63.62
2018-09-08T21:47:53.708Z,63.32
2018-09-08T21:50:22.607Z,63.68
2018-09-08T21:52:51.603Z,64.82
2018-09-08T21:55:20.586Z,64.52
2018-09-08T21:57:49.477Z,64.41
2018-09-08T22:00:18.461Z,65.60
2018-09-08T22:02:47.425Z,67.53
2018-09-08T22:05:16.416Z,65.04
2018-09-08T22:07:45.402Z,64.69
2018-09-08T22:10:14.397Z,63.15
2018-09-08T22:12:43.388Z,63.48
2018-09-08T22:15:12.292Z,62.25
2018-09-08T22:17:41.232Z,62.36
2018-09-08T22:20:10.153Z,62.99
2018-09-08T22:22:39.119Z,63.12
2018-09-08T22:25:08.114Z,62.70
2018-09-08T22:27:37.089Z,62.12
2018-09-08T22:30:06.249Z,62.38
2018-09-08T22:32:35.164Z,62.78
2018-09-08T22:35:04.252Z,62.05
2018-09-08T22:37:33.136Z,61.53
2018-09-08T22:40:02.123Z,61.98
2018-09-08T22:42:31.109Z,61.98
2018-09-08T22:45:00.100Z,62.84
2018-09-08T22:47:29.103Z,62.12
2018-09-08T22:49:58.020Z,62.77
2018-09-08T22:52:26.924Z,63.22
2018-09-08T22:54:55.816Z,63.11
2018-09-08T22:57:24.847Z,62.91
2018-09-08T22:59:53.765Z,62.50
2018-09-08T23:02:22.732Z,61.78
2018-09-08T23:04:51.702Z,63.20
2018-09-08T23:07:20.664Z,63.84
2018-09-08T23:09:49.552Z,62.66
2018-09-08T23:12:18.484Z,62.71
2018-09-08T23:14:47.509Z,62.00
2018-09-08T23:17:16.474Z,62.35
2018-09-08T23:19:45.391Z,61.83
2018-09-08T23:22:14.312Z,61.30
2018-09-08T23:24:43.231Z,62.16
2018-09-08T23:27:12.161Z,61.36
2018-09-08T23:29:41.072Z,62.12
2018-09-08T23:32:10.093Z,61.67
2018-09-08T23:34:39.056Z,61.19
2018-09-08T23:37:08.088Z,61.11
2018-09-08T23:39:37.056Z,60.89
2018-09-08T23:42:05.967Z,60.93
2018-09-08T23:44:34.895Z,60.68
2018-09-08T23:47:03.894Z,59.74
2018-09-08T23:49:32.942Z,60.72
2018-09-08T23:52:01.887Z,61.63
2018-09-08T23:54:30.828Z,64.07
2018-09-08T23:56:59.759Z,63.57
2018-09-08T23:59:28.916Z,62.34
